Time;durP1;ratioP1;P1;durP2;ratioP2;P2;SDS_P1;SDS_P2;PMS_P1;PMS_P2;Temp;Humidity;BMP_temperature;BMP_pressure;BME280_temperature;BME280_humidity;BME280_pressure;Samples;Min_cycle;Max_cycle;Signal;HPM_P1;HPM_P2
2023/01/18 00:01:48;;;;;;;3.95;2.47;;;;;;;;;;4993156;28;20054;-48
2023/01/18 00:04:15;;;;;;;5.00;2.40;;;;;;;;;;4993210;28;20070;-48
2023/01/18 00:06:43;;;;;;;6.43;2.50;;;;;;;;;;4974302;28;20080;-50
2023/01/18 00:09:11;;;;;;;5.13;2.70;;;;;;;;;;4973794;28;20050;-48
2023/01/18 00:11:39;;;;;;;4.28;2.30;;;;;;;;;;4973585;28;20051;-50
2023/01/18 00:14:06;;;;;;;3.83;2.17;;;;;;;;;;4973498;28;20110;-48
2023/01/18 00:16:33;;;;;;;5.82;2.72;;;;;;;;;;4973661;28;20046;-48
2023/01/18 00:19:00;;;;;;;4.80;2.20;;;;;;;;;;4973352;28;20055;-50
2023/01/18 00:21:28;;;;;;;5.03;2.83;;;;;;;;;;4973415;28;20055;-50
2023/01/18 00:23:56;;;;;;;5.72;2.53;;;;;;;;;;4973635;28;20105;-48
2023/01/18 00:26:23;;;;;;;4.85;2.42;;;;;;;;;;4973435;28;20050;-48
2023/01/18 00:28:50;;;;;;;4.80;2.50;;;;;;;;;;4973660;28;20421;-49
2023/01/18 00:31:19;;;;;;;6.18;2.75;;;;;;;;;;4973406;28;20047;-49
2023/01/18 00:33:47;;;;;;;4.88;2.42;;;;;;;;;;4973231;28;20053;-48
2023/01/18 00:36:15;;;;;;;4.82;2.42;;;;;;;;;;4973311;28;20055;-48
2023/01/18 00:38:42;;;;;;;5.15;2.47;;;;;;;;;;4973317;28;20150;-48
2023/01/18 00:41:10;;;;;;;4.43;2.60;;;;;;;;;;4973311;28;20054;-47
2023/01/18 00:43:39;;;;;;;5.45;2.80;;;;;;;;;;4973262;28;20138;-48
2023/01/18 00:46:07;;;;;;;4.43;2.30;;;;;;;;;;4973268;28;20050;-47
2023/01/18 00:48:33;;;;;;;5.20;2.50;;;;;;;;;;4973255;28;20389;-47
2023/01/18 00:51:01;;;;;;;5.13;2.47;;;;;;;;;;4972912;28;20058;-47
2023/01/18 00:53:28;;;;;;;4.45;2.30;;;;;;;;;;4972906;28;20485;-48
2023/01/18 00:55:55;;;;;;;5.55;2.85;;;;;;;;;;4973143;28;20424;-49
2023/01/18 00:58:24;;;;;;;6.72;3.75;;;;;;;;;;4972831;28;20440;-48
2023/01/18 01:00:52;;;;;;;7.07;3.90;;;;;;;;;;4973124;28;20508;-51
2023/01/18 01:03:20;;;;;;;7.15;4.07;;;;;;;;;;4975831;28;20054;-52
2023/01/18 01:08:31;;;;;;;8.32;4.10;;;;;;;;;;4996136;28;20084;-48
2023/01/18 01:11:07;;;;;;;9.50;4.72;;;;;;;;;;4996000;28;20050;-49
2023/01/18 01:27:21;;;;;;;9.45;5.57;;;;;;;;;;4996297;28;20124;-48
2023/01/18 01:29:51;;;;;;;10.30;5.18;;;;;;;;;;4995776;28;20050;-48
2023/01/18 01:32:18;;;;;;;8.57;4.78;;;;;;;;;;4995440;28;20050;-48
2023/01/18 01:34:45;;;;;;;8.38;5.00;;;;;;;;;;4995535;28;20125;-48
2023/01/18 01:37:11;;;;;;;8.45;4.00;;;;;;;;;;4995700;28;20054;-50
2023/01/18 01:39:38;;;;;;;6.80;3.25;;;;;;;;;;4995526;28;20049;-48
2023/01/18 01:42:05;;;;;;;6.68;3.35;;;;;;;;;;4995208;28;20068;-48
2023/01/18 01:44:48;;;;;;;5.05;3.08;;;;;;;;;;4995319;28;20130;-47
2023/01/18 01:47:25;;;;;;;6.45;3.33;;;;;;;;;;4995374;28;20050;-49
2023/01/18 01:49:56;;;;;;;6.53;3.22;;;;;;;;;;4995557;28;20050;-48
2023/01/18 01:52:26;;;;;;;5.32;2.90;;;;;;;;;;4995250;28;20174;-49
2023/01/18 01:54:58;;;;;;;5.43;3.05;;;;;;;;;;4995168;28;20062;-49
2023/01/18 01:57:28;;;;;;;5.22;2.85;;;;;;;;;;4995301;28;20053;-48
2023/01/18 01:59:59;;;;;;;7.30;3.60;;;;;;;;;;4995066;28;20046;-52
2023/01/18 02:02:30;;;;;;;6.10;3.20;;;;;;;;;;4995019;28;20113;-48
2023/01/18 02:04:59;;;;;;;6.43;3.55;;;;;;;;;;4995013;28;20484;-50
2023/01/18 02:07:27;;;;;;;6.43;3.30;;;;;;;;;;4995064;28;20109;-48
2023/01/18 02:09:55;;;;;;;5.63;3.35;;;;;;;;;;4995067;28;20523;-49
2023/01/18 02:12:22;;;;;;;7.32;3.55;;;;;;;;;;4994480;28;20117;-47
2023/01/18 02:14:49;;;;;;;6.88;3.33;;;;;;;;;;4994628;28;20452;-49
2023/01/18 02:17:37;;;;;;;5.32;3.00;;;;;;;;;;4994736;28;20050;-48
2023/01/18 02:20:39;;;;;;;6.43;3.38;;;;;;;;;;4994625;28;20053;-48
2023/01/18 02:23:34;;;;;;;6.60;3.45;;;;;;;;;;4991706;28;20180;-48
2023/01/18 02:26:43;;;;;;;6.30;3.03;;;;;;;;;;4994480;28;20046;-47
2023/01/18 02:29:16;;;;;;;5.38;3.35;;;;;;;;;;4957472;28;20137;-47
2023/01/18 02:31:53;;;;;;;7.57;3.20;;;;;;;;;;4994394;28;20061;-49
2023/01/18 02:34:29;;;;;;;5.88;3.15;;;;;;;;;;4994482;28;20050;-48
2023/01/18 02:37:05;;;;;;;5.53;2.55;;;;;;;;;;4994430;28;20057;-48
2023/01/18 02:39:38;;;;;;;5.50;3.05;;;;;;;;;;4994466;28;20140;-48
2023/01/18 02:48:03;;;;;;;6.28;3.40;;;;;;;;;;4972603;28;20157;-49
2023/01/18 02:50:30;;;;;;;7.95;4.38;;;;;;;;;;4985403;28;20061;-49
2023/01/18 02:52:57;;;;;;;7.68;4.10;;;;;;;;;;4994074;28;20054;-49
2023/01/18 02:55:41;;;;;;;7.05;4.18;;;;;;;;;;4993976;28;20061;-51
2023/01/18 02:58:11;;;;;;;6.50;3.75;;;;;;;;;;4994090;28;20047;-48
2023/01/18 03:00:44;;;;;;;7.88;4.50;;;;;;;;;;4993989;28;20050;-49
2023/01/18 03:03:12;;;;;;;7.47;4.50;;;;;;;;;;4993882;28;20050;-48
2023/01/18 03:05:41;;;;;;;8.95;4.30;;;;;;;;;;4993907;28;20046;-51
2023/01/18 03:08:15;;;;;;;8.07;4.30;;;;;;;;;;4994020;28;20054;-48
2023/01/18 03:10:50;;;;;;;7.72;4.80;;;;;;;;;;4994004;28;20054;-47
2023/01/18 03:13:22;;;;;;;7.35;3.92;;;;;;;;;;4993619;28;20046;-48
2023/01/18 03:15:53;;;;;;;10.65;5.18;;;;;;;;;;4993835;28;20101;-51
2023/01/18 03:18:27;;;;;;;9.68;4.60;;;;;;;;;;4993952;28;20428;-49
2023/01/18 03:20:57;;;;;;;8.85;4.90;;;;;;;;;;4993415;28;20050;-50
2023/01/18 03:23:38;;;;;;;8.18;4.70;;;;;;;;;;4993461;28;20050;-48
2023/01/18 03:26:07;;;;;;;8.93;4.43;;;;;;;;;;4992528;28;20050;-48
2023/01/18 03:34:23;;;;;;;8.70;4.22;;;;;;;;;;4993425;28;20069;-48
2023/01/18 03:36:52;;;;;;;6.22;2.70;;;;;;;;;;4993537;28;20046;-47
2023/01/18 03:39:27;;;;;;;6.72;3.28;;;;;;;;;;4993298;28;20133;-48
2023/01/18 03:41:59;;;;;;;5.93;3.08;;;;;;;;;;4993198;28;20059;-49
2023/01/18 03:44:32;;;;;;;5.22;2.63;;;;;;;;;;4993507;28;20050;-49
2023/01/18 03:47:01;;;;;;;5.95;2.83;;;;;;;;;;4993140;28;20495;-48
2023/01/18 03:49:29;;;;;;;4.88;2.92;;;;;;;;;;4993262;28;20058;-50
2023/01/18 03:52:14;;;;;;;5.05;2.22;;;;;;;;;;4992739;28;20081;-50
2023/01/18 03:54:48;;;;;;;4.40;2.45;;;;;;;;;;4992859;28;20439;-49
2023/01/18 03:57:19;;;;;;;3.97;2.10;;;;;;;;;;4993083;28;20050;-48
2023/01/18 03:59:47;;;;;;;5.25;2.38;;;;;;;;;;4992825;28;20046;-49
2023/01/18 04:02:17;;;;;;;4.03;1.83;;;;;;;;;;4992726;28;20050;-48
2023/01/18 04:04:44;;;;;;;4.03;2.13;;;;;;;;;;4989058;28;20050;-50
2023/01/18 04:07:11;;;;;;;3.17;1.80;;;;;;;;;;4973383;28;20047;-48
2023/01/18 04:09:38;;;;;;;3.95;1.70;;;;;;;;;;4973646;28;20050;-47
2023/01/18 04:12:05;;;;;;;3.67;1.98;;;;;;;;;;4973309;28;20050;-49
2023/01/18 04:14:32;;;;;;;3.00;1.80;;;;;;;;;;4973416;28;20054;-49
2023/01/18 04:16:59;;;;;;;4.43;2.10;;;;;;;;;;4973406;28;20053;-49
2023/01/18 04:19:27;;;;;;;3.83;1.90;;;;;;;;;;4973563;28;20050;-53
2023/01/18 04:21:54;;;;;;;4.70;1.90;;;;;;;;;;4973089;28;20054;-47
2023/01/18 04:24:21;;;;;;;6.03;2.30;;;;;;;;;;4972969;28;20448;-48
2023/01/18 04:26:47;;;;;;;4.50;2.10;;;;;;;;;;4972876;28;20047;-47
2023/01/18 04:29:14;;;;;;;4.20;2.03;;;;;;;;;;4973377;28;20059;-47
2023/01/18 04:31:41;;;;;;;3.33;1.75;;;;;;;;;;4972760;28;20046;-52
2023/01/18 04:34:08;;;;;;;3.72;1.85;;;;;;;;;;4973184;28;20051;-48
2023/01/18 04:36:37;;;;;;;3.10;1.63;;;;;;;;;;4975441;28;20047;-50
2023/01/18 04:39:04;;;;;;;3.58;1.70;;;;;;;;;;4977230;28;20051;-50
2023/01/18 04:41:31;;;;;;;4.43;1.90;;;;;;;;;;4976980;28;20050;-50
2023/01/18 04:43:59;;;;;;;4.07;1.65;;;;;;;;;;4977416;28;20441;-49
2023/01/18 04:46:25;;;;;;;3.88;2.03;;;;;;;;;;4977372;28;20055;-48
2023/01/18 04:48:52;;;;;;;3.92;1.80;;;;;;;;;;4977160;28;20058;-49
2023/01/18 04:51:20;;;;;;;3.88;1.70;;;;;;;;;;4976669;28;20204;-48
2023/01/18 04:53:48;;;;;;;3.25;1.77;;;;;;;;;;4976580;28;20043;-48
2023/01/18 04:56:15;;;;;;;3.60;1.73;;;;;;;;;;4976654;28;20416;-49
2023/01/18 04:58:42;;;;;;;3.50;1.58;;;;;;;;;;4976509;28;20059;-49
2023/01/18 05:01:13;;;;;;;3.20;2.00;;;;;;;;;;4976794;28;20055;-48
2023/01/18 05:03:40;;;;;;;3.75;1.58;;;;;;;;;;4976955;28;20440;-48
2023/01/18 05:06:08;;;;;;;3.42;1.52;;;;;;;;;;4976611;28;20287;-49
2023/01/18 05:08:39;;;;;;;3.47;1.70;;;;;;;;;;4976844;28;20051;-49
2023/01/18 05:11:09;;;;;;;3.70;1.55;;;;;;;;;;4976595;28;20138;-49
2023/01/18 05:13:36;;;;;;;3.55;1.63;;;;;;;;;;4976685;28;20051;-49
2023/01/18 05:16:03;;;;;;;3.42;1.73;;;;;;;;;;4976707;28;20054;-52
2023/01/18 05:18:30;;;;;;;4.40;1.90;;;;;;;;;;4976592;28;20530;-48
2023/01/18 05:20:57;;;;;;;3.78;1.88;;;;;;;;;;4976427;28;20050;-52
2023/01/18 05:23:24;;;;;;;3.55;1.50;;;;;;;;;;4975997;28;20066;-49
2023/01/18 05:25:55;;;;;;;3.13;1.40;;;;;;;;;;4976175;28;20082;-50
2023/01/18 05:28:24;;;;;;;3.28;1.63;;;;;;;;;;4976348;28;20053;-49
2023/01/18 05:30:51;;;;;;;4.20;1.90;;;;;;;;;;4976163;28;20081;-49
2023/01/18 05:33:18;;;;;;;3.20;1.80;;;;;;;;;;4975902;28;20047;-54
2023/01/18 05:35:49;;;;;;;4.40;1.80;;;;;;;;;;4975933;28;20054;-49
2023/01/18 05:38:16;;;;;;;3.58;1.85;;;;;;;;;;4976017;28;20140;-50
2023/01/18 05:40:44;;;;;;;4.55;2.20;;;;;;;;;;4975919;28;20053;-50
2023/01/18 05:43:11;;;;;;;4.00;2.13;;;;;;;;;;4975878;28;20055;-48
2023/01/18 05:45:41;;;;;;;3.47;1.80;;;;;;;;;;4976259;28;20050;-48
2023/01/18 05:48:08;;;;;;;4.05;1.55;;;;;;;;;;4975316;28;20054;-48
2023/01/18 05:50:35;;;;;;;4.53;2.00;;;;;;;;;;4975928;28;20055;-48
2023/01/18 05:53:02;;;;;;;3.40;1.77;;;;;;;;;;4975753;28;20051;-52
2023/01/18 05:55:29;;;;;;;4.22;2.00;;;;;;;;;;4975825;28;20055;-48
2023/01/18 05:57:55;;;;;;;3.72;1.75;;;;;;;;;;4975664;28;20054;-51
2023/01/18 06:00:23;;;;;;;5.38;2.40;;;;;;;;;;4975733;28;20420;-49
2023/01/18 06:02:52;;;;;;;4.93;2.05;;;;;;;;;;4975834;28;20054;-51
2023/01/18 06:05:19;;;;;;;4.05;1.92;;;;;;;;;;4984198;28;20057;-47
2023/01/18 06:07:46;;;;;;;3.25;1.75;;;;;;;;;;4995022;28;20475;-48
2023/01/18 06:10:14;;;;;;;4.72;2.03;;;;;;;;;;4995454;28;20089;-48
2023/01/18 06:12:41;;;;;;;4.80;2.30;;;;;;;;;;4994905;28;20428;-49
2023/01/18 06:15:09;;;;;;;4.35;2.10;;;;;;;;;;4995030;28;20051;-49
2023/01/18 06:17:36;;;;;;;4.45;2.05;;;;;;;;;;4995049;28;20062;-52
2023/01/18 06:20:05;;;;;;;4.40;1.90;;;;;;;;;;4995124;28;20066;-48
2023/01/18 06:22:33;;;;;;;4.82;1.95;;;;;;;;;;4994627;28;20061;-49
2023/01/18 06:25:00;;;;;;;3.15;1.95;;;;;;;;;;4994658;28;20072;-49
2023/01/18 06:27:26;;;;;;;4.22;2.10;;;;;;;;;;4994610;28;20046;-48
2023/01/18 06:29:54;;;;;;;4.70;2.35;;;;;;;;;;4994709;28;20385;-47
2023/01/18 06:32:22;;;;;;;4.32;2.33;;;;;;;;;;4994330;28;20132;-48
2023/01/18 06:34:48;;;;;;;4.38;2.15;;;;;;;;;;4994507;28;20046;-49
2023/01/18 06:37:17;;;;;;;4.60;1.90;;;;;;;;;;4994494;28;20054;-52
2023/01/18 06:39:43;;;;;;;5.50;2.28;;;;;;;;;;4994857;28;20541;-48
2023/01/18 06:42:10;;;;;;;4.32;2.33;;;;;;;;;;4994262;28;20055;-49
2023/01/18 06:44:37;;;;;;;4.15;1.90;;;;;;;;;;4994386;28;20105;-49
2023/01/18 06:47:04;;;;;;;6.28;2.50;;;;;;;;;;4994270;28;20047;-50
2023/01/18 06:52:11;;;;;;;4.70;2.00;;;;;;;;;;5030300;28;20056;-53
2023/01/18 06:54:39;;;;;;;3.47;2.00;;;;;;;;;;5033469;28;20049;-51
2023/01/18 06:57:06;;;;;;;4.22;2.20;;;;;;;;;;5033574;28;20060;-53
2023/01/18 06:59:33;;;;;;;4.35;2.30;;;;;;;;;;5032423;28;20134;-55
2023/01/18 07:02:00;;;;;;;5.72;2.70;;;;;;;;;;5033009;28;20057;-55
2023/01/18 07:04:27;;;;;;;3.72;1.92;;;;;;;;;;5031772;28;20064;-54
2023/01/18 07:06:54;;;;;;;6.97;2.42;;;;;;;;;;5013516;28;20050;-56
2023/01/18 07:09:21;;;;;;;4.93;2.40;;;;;;;;;;5013516;28;20046;-54
2023/01/18 07:11:49;;;;;;;4.07;1.85;;;;;;;;;;5013615;28;20359;-53
2023/01/18 07:14:16;;;;;;;3.85;2.20;;;;;;;;;;5013328;28;20072;-55
2023/01/18 07:16:43;;;;;;;6.25;2.38;;;;;;;;;;5013689;28;20533;-56
2023/01/18 07:19:10;;;;;;;4.35;2.28;;;;;;;;;;5013447;28;20605;-54
2023/01/18 07:21:38;;;;;;;4.47;1.90;;;;;;;;;;5012834;28;20054;-54
2023/01/18 07:24:06;;;;;;;4.47;2.10;;;;;;;;;;5013385;28;20145;-52
2023/01/18 07:26:33;;;;;;;6.10;2.22;;;;;;;;;;5013358;28;20046;-55
2023/01/18 07:29:01;;;;;;;4.45;2.50;;;;;;;;;;5013100;28;20053;-52
2023/01/18 07:31:29;;;;;;;3.80;2.20;;;;;;;;;;5013207;28;20495;-55
2023/01/18 07:33:57;;;;;;;5.57;2.05;;;;;;;;;;5012956;28;20056;-52
2023/01/18 07:36:24;;;;;;;4.28;2.03;;;;;;;;;;5012899;28;20053;-52
2023/01/18 07:38:51;;;;;;;4.30;1.90;;;;;;;;;;5013136;28;20487;-52
2023/01/18 07:41:18;;;;;;;4.28;1.70;;;;;;;;;;5013101;28;20598;-53
2023/01/18 07:43:45;;;;;;;3.35;1.50;;;;;;;;;;5013079;28;20144;-55
2023/01/18 07:46:17;;;;;;;4.93;1.75;;;;;;;;;;5012793;28;20058;-54
2023/01/18 07:48:44;;;;;;;3.38;1.80;;;;;;;;;;5013065;28;20054;-54
2023/01/18 07:51:11;;;;;;;2.70;1.40;;;;;;;;;;5012610;28;20053;-55
2023/01/18 07:53:39;;;;;;;5.22;1.98;;;;;;;;;;5009156;28;20046;-55
2023/01/18 07:56:08;;;;;;;4.32;1.77;;;;;;;;;;5012947;28;20563;-56
2023/01/18 07:58:35;;;;;;;4.05;1.70;;;;;;;;;;5012653;28;20497;-56
2023/01/18 08:01:03;;;;;;;4.07;1.80;;;;;;;;;;5012733;28;20053;-52
2023/01/18 08:03:32;;;;;;;3.85;1.50;;;;;;;;;;5012534;28;20046;-54
2023/01/18 08:05:59;;;;;;;3.25;1.60;;;;;;;;;;4998761;28;20058;-55
2023/01/18 08:08:27;;;;;;;2.92;1.48;;;;;;;;;;4992830;28;20061;-55
2023/01/18 08:10:55;;;;;;;2.90;1.38;;;;;;;;;;4993081;28;20603;-53
2023/01/18 08:13:23;;;;;;;5.43;1.50;;;;;;;;;;4992704;28;20091;-53
2023/01/18 08:15:51;;;;;;;3.58;1.73;;;;;;;;;;4993513;28;20058;-56
2023/01/18 08:18:18;;;;;;;3.80;1.58;;;;;;;;;;4992618;28;20054;-54
2023/01/18 08:20:48;;;;;;;3.67;1.50;;;;;;;;;;4993080;28;20047;-52
2023/01/18 08:23:16;;;;;;;2.33;1.25;;;;;;;;;;4992645;28;20449;-52
2023/01/18 08:25:44;;;;;;;3.50;1.70;;;;;;;;;;4992530;28;20054;-53
2023/01/18 08:28:11;;;;;;;3.88;1.50;;;;;;;;;;4992854;28;20050;-52
2023/01/18 08:30:40;;;;;;;3.45;1.65;;;;;;;;;;4992326;28;20061;-53
2023/01/18 08:33:07;;;;;;;3.75;1.67;;;;;;;;;;4992745;28;20050;-54
2023/01/18 08:35:40;;;;;;;3.88;1.58;;;;;;;;;;4992391;28;20055;-53
2023/01/18 08:38:12;;;;;;;3.78;1.52;;;;;;;;;;4992853;28;20086;-57
2023/01/18 08:40:39;;;;;;;3.97;1.45;;;;;;;;;;4992953;28;20058;-55
2023/01/18 08:43:07;;;;;;;5.97;1.83;;;;;;;;;;4992746;28;20046;-54
2023/01/18 08:45:34;;;;;;;3.22;1.50;;;;;;;;;;4992635;28;20058;-53
2023/01/18 08:48:04;;;;;;;4.82;1.75;;;;;;;;;;4992469;28;20564;-56
2023/01/18 08:50:32;;;;;;;3.67;1.60;;;;;;;;;;4992027;28;20054;-53
2023/01/18 08:52:59;;;;;;;4.78;1.85;;;;;;;;;;4992492;28;20050;-52
2023/01/18 08:55:29;;;;;;;4.13;1.95;;;;;;;;;;4992170;28;20144;-54
2023/01/18 08:57:57;;;;;;;3.33;1.70;;;;;;;;;;4992985;28;20412;-51
2023/01/18 09:00:27;;;;;;;3.15;1.63;;;;;;;;;;4992419;28;20086;-52
2023/01/18 09:02:54;;;;;;;3.83;1.83;;;;;;;;;;4992413;28;20318;-54
2023/01/18 09:05:21;;;;;;;4.47;1.73;;;;;;;;;;5001303;28;20060;-57
2023/01/18 09:07:49;;;;;;;4.43;1.90;;;;;;;;;;5011839;28;20050;-54
2023/01/18 09:10:17;;;;;;;3.83;1.75;;;;;;;;;;5012098;28;20487;-51
2023/01/18 09:12:45;;;;;;;4.00;1.67;;;;;;;;;;5011695;28;20050;-54
2023/01/18 09:15:12;;;;;;;4.07;1.70;;;;;;;;;;5012109;28;20407;-54
2023/01/18 09:17:39;;;;;;;4.45;2.00;;;;;;;;;;5012010;28;20486;-54
2023/01/18 09:20:10;;;;;;;4.07;1.70;;;;;;;;;;5012047;28;20046;-55
2023/01/18 09:22:38;;;;;;;6.32;2.75;;;;;;;;;;5011760;28;20050;-54
2023/01/18 09:25:05;;;;;;;4.57;2.20;;;;;;;;;;5015708;28;20103;-62
2023/01/18 09:27:33;;;;;;;4.53;1.90;;;;;;;;;;5015666;28;20053;-52
2023/01/18 09:30:01;;;;;;;4.95;2.28;;;;;;;;;;5015675;28;20053;-50
2023/01/18 09:32:29;;;;;;;4.28;2.13;;;;;;;;;;5015431;28;20057;-55
2023/01/18 09:34:56;;;;;;;5.28;1.67;;;;;;;;;;5015178;28;20081;-54
2023/01/18 09:37:23;;;;;;;4.20;1.60;;;;;;;;;;5015578;28;20076;-51
2023/01/18 09:39:49;;;;;;;5.22;1.98;;;;;;;;;;5015112;28;20057;-55
2023/01/18 09:42:20;;;;;;;6.95;1.88;;;;;;;;;;5015009;28;20054;-53
2023/01/18 09:44:49;;;;;;;;;;;;;;;;;;5015804;28;20104;-55
2023/01/18 09:47:21;;;;;;;5.20;1.70;;;;;;;;;;5015687;28;20358;-51
2023/01/18 09:49:53;;;;;;;4.07;1.95;;;;;;;;;;5014864;28;20144;-54
2023/01/18 09:52:42;;;;;;;4.63;1.95;;;;;;;;;;5015025;28;20054;-57
2023/01/18 09:55:18;;;;;;;4.28;1.88;;;;;;;;;;5014926;28;20050;-54
2023/01/18 09:57:55;;;;;;;4.65;1.70;;;;;;;;;;5015112;28;20470;-52
2023/01/18 10:00:24;;;;;;;4.20;2.10;;;;;;;;;;5014807;28;20136;-55
2023/01/18 10:02:59;;;;;;;6.55;1.70;;;;;;;;;;5014666;28;20086;-53
2023/01/18 10:05:31;;;;;;;3.95;1.80;;;;;;;;;;5005589;28;20101;-54
2023/01/18 10:08:06;;;;;;;3.53;1.73;;;;;;;;;;4995159;28;20054;-52
2023/01/18 10:10:37;;;;;;;2.78;1.58;;;;;;;;;;4994919;28;20382;-55
2023/01/18 10:13:27;;;;;;;3.40;1.75;;;;;;;;;;4995203;28;20411;-52
2023/01/18 10:15:54;;;;;;;5.63;1.83;;;;;;;;;;4995165;28;20077;-53
2023/01/18 10:18:25;;;;;;;2.75;1.52;;;;;;;;;;4995253;28;20042;-55
2023/01/18 10:20:57;;;;;;;3.63;1.65;;;;;;;;;;4994947;28;20056;-55
2023/01/18 10:23:27;;;;;;;3.08;1.50;;;;;;;;;;4994855;28;20130;-54
2023/01/18 10:25:56;;;;;;;2.67;1.50;;;;;;;;;;4994563;28;20054;-55
2023/01/18 10:28:32;;;;;;;5.55;2.10;;;;;;;;;;4994832;28;20104;-54
2023/01/18 10:31:14;;;;;;;3.97;1.90;;;;;;;;;;4994570;28;20046;-54
2023/01/18 10:33:44;;;;;;;3.28;1.58;;;;;;;;;;4994589;28;20133;-54
2023/01/18 10:36:16;;;;;;;3.10;1.60;;;;;;;;;;4994913;28;20086;-51
2023/01/18 10:38:46;;;;;;;3.03;1.83;;;;;;;;;;5006330;28;20546;-54
2023/01/18 10:41:19;;;;;;;3.47;1.90;;;;;;;;;;4996426;28;20050;-52
2023/01/18 10:43:47;;;;;;;3.67;2.05;;;;;;;;;;5013676;28;20061;-55
2023/01/18 10:46:17;;;;;;;4.80;1.85;;;;;;;;;;5013921;28;20058;-52
2023/01/18 10:48:47;;;;;;;3.45;2.05;;;;;;;;;;5014429;28;20516;-54
2023/01/18 10:51:33;;;;;;;4.50;2.22;;;;;;;;;;5014070;28;20050;-54
2023/01/18 10:54:21;;;;;;;3.15;1.67;;;;;;;;;;5014057;28;20050;-55
2023/01/18 10:56:49;;;;;;;3.30;2.00;;;;;;;;;;5013645;28;20053;-54
2023/01/18 10:59:25;;;;;;;4.05;2.10;;;;;;;;;;5014426;28;20050;-55
2023/01/18 11:01:55;;;;;;;3.47;1.80;;;;;;;;;;5013703;28;20408;-56
2023/01/18 11:04:28;;;;;;;4.53;2.08;;;;;;;;;;5013960;28;20495;-54
2023/01/18 11:06:57;;;;;;;5.93;2.80;;;;;;;;;;5014156;28;20056;-53
2023/01/18 11:09:43;;;;;;;3.30;1.70;;;;;;;;;;5013859;28;20050;-52
2023/01/18 11:12:35;;;;;;;2.90;1.77;;;;;;;;;;5013197;28;20495;-54
2023/01/18 11:15:22;;;;;;;3.63;1.92;;;;;;;;;;5013625;28;20087;-54
2023/01/18 11:18:09;;;;;;;3.70;2.00;;;;;;;;;;5013446;28;20053;-55
2023/01/18 11:20:45;;;;;;;4.07;2.13;;;;;;;;;;5013457;28;20046;-56
2023/01/18 11:23:19;;;;;;;3.30;1.77;;;;;;;;;;5012977;28;20053;-54
2023/01/18 11:25:54;;;;;;;3.45;1.92;;;;;;;;;;5013258;28;20054;-52
2023/01/18 11:28:23;;;;;;;4.50;2.03;;;;;;;;;;5013155;28;20053;-55
2023/01/18 11:30:53;;;;;;;3.67;2.15;;;;;;;;;;5013157;28;20050;-55
2023/01/18 11:33:21;;;;;;;4.17;2.20;;;;;;;;;;5012964;28;20104;-54
2023/01/18 11:35:56;;;;;;;4.57;2.42;;;;;;;;;;5013624;28;20304;-55
2023/01/18 11:38:28;;;;;;;5.63;2.63;;;;;;;;;;5013050;28;20065;-55
2023/01/18 11:41:10;;;;;;;4.80;2.40;;;;;;;;;;5013147;28;20141;-54
2023/01/18 11:43:38;;;;;;;4.85;3.22;;;;;;;;;;5012917;28;20071;-56
2023/01/18 11:46:26;;;;;;;6.50;3.40;;;;;;;;;;5012152;28;20057;-52
2023/01/18 11:48:56;;;;;;;5.47;2.63;;;;;;;;;;5012681;28;20056;-55
2023/01/18 11:51:31;;;;;;;5.32;3.20;;;;;;;;;;5012858;28;20050;-56
2023/01/18 11:54:03;;;;;;;5.47;2.83;;;;;;;;;;5013012;28;20057;-55
2023/01/18 11:56:36;;;;;;;5.53;3.05;;;;;;;;;;5012455;28;20172;-56
2023/01/18 11:59:04;;;;;;;5.25;3.42;;;;;;;;;;5013058;28;20061;-53
2023/01/18 12:01:56;;;;;;;7.47;3.47;;;;;;;;;;5012684;28;20503;-52
2023/01/18 12:04:32;;;;;;;5.97;3.50;;;;;;;;;;5006886;28;20060;-55
2023/01/18 12:07:09;;;;;;;6.13;2.80;;;;;;;;;;4993380;28;20658;-53
2023/01/18 12:09:43;;;;;;;5.90;3.70;;;;;;;;;;4993502;28;20116;-51
2023/01/18 12:12:32;;;;;;;7.28;3.80;;;;;;;;;;4992969;28;20057;-55
2023/01/18 12:15:21;;;;;;;5.07;2.78;;;;;;;;;;4993052;28;20050;-54
2023/01/18 12:18:05;;;;;;;5.68;2.95;;;;;;;;;;4993186;28;20381;-53
2023/01/18 12:20:40;;;;;;;4.20;2.60;;;;;;;;;;4992894;28;20082;-54
2023/01/18 12:23:27;;;;;;;4.70;2.55;;;;;;;;;;4992694;28;20357;-53
2023/01/18 12:26:08;;;;;;;3.80;2.33;;;;;;;;;;4992541;28;20050;-53
2023/01/18 12:28:47;;;;;;;4.57;2.17;;;;;;;;;;4993022;28;20066;-53
2023/01/18 12:31:22;;;;;;;6.15;3.10;;;;;;;;;;4992812;28;20050;-55
2023/01/18 12:33:57;;;;;;;6.95;3.05;;;;;;;;;;4992991;28;20054;-55
2023/01/18 12:36:37;;;;;;;5.82;3.17;;;;;;;;;;4992784;28;20116;-53
2023/01/18 12:39:18;;;;;;;6.23;3.63;;;;;;;;;;4992727;28;20062;-54
2023/01/18 12:41:50;;;;;;;;;;;;;;;;;;4992849;28;20054;-55
2023/01/18 12:44:31;;;;;;;5.13;3.40;;;;;;;;;;4993264;28;19961;-56
2023/01/18 12:47:11;;;;;;;6.80;3.33;;;;;;;;;;4992579;28;20437;-56
2023/01/18 12:49:42;;;;;;;5.32;3.45;;;;;;;;;;4992878;28;20051;-54
2023/01/18 12:52:13;;;;;;;4.90;3.00;;;;;;;;;;5024197;22;20576;-49
2023/01/18 12:54:44;;;;;;;4.53;2.90;;;;;;;;;;5012272;28;20077;-49
2023/01/18 12:57:13;;;;;;;;;;;;;;;;;;5012328;28;20082;-50
2023/01/18 12:59:45;;;;;;;5.18;3.13;;;;;;;;;;5015985;28;20370;-50
2023/01/18 13:02:26;;;;;;;6.75;3.80;;;;;;;;;;5016085;28;20049;-51
2023/01/18 13:04:57;;;;;;;7.03;4.10;;;;;;;;;;5016188;28;20054;-53
2023/01/18 13:07:27;;;;;;;;;;;;;;;;;;5016096;28;20422;-53
2023/01/18 13:09:54;;;;;;;5.43;3.28;;;;;;;;;;5016061;28;19925;-49
2023/01/18 13:12:24;;;;;;;6.28;3.53;;;;;;;;;;5015637;28;20140;-49
2023/01/18 13:14:56;;;;;;;6.15;3.70;;;;;;;;;;5015862;28;20391;-50
2023/01/18 13:17:28;;;;;;;7.30;4.18;;;;;;;;;;5015683;28;20054;-53
2023/01/18 13:20:00;;;;;;;7.10;4.07;;;;;;;;;;5015605;28;20491;-51
2023/01/18 13:22:33;;;;;;;7.70;4.78;;;;;;;;;;5015458;28;20097;-51
2023/01/18 13:25:30;;;;;;;7.53;4.03;;;;;;;;;;5015934;28;20056;-51
2023/01/18 13:28:00;;;;;;;6.13;4.60;;;;;;;;;;5015557;28;20050;-50
2023/01/18 13:30:30;;;;;;;5.40;3.88;;;;;;;;;;5015218;28;20057;-49
2023/01/18 13:32:57;;;;;;;6.38;4.07;;;;;;;;;;5015395;28;20056;-52
2023/01/18 13:35:32;;;;;;;6.40;4.22;;;;;;;;;;5015258;28;20042;-52
2023/01/18 13:38:00;;;;;;;5.53;3.90;;;;;;;;;;5015269;28;20116;-53
2023/01/18 13:40:35;;;;;;;7.63;4.60;;;;;;;;;;5015113;28;20396;-50
2023/01/18 13:43:04;;;;;;;6.15;3.90;;;;;;;;;;5016450;28;20103;-51
2023/01/18 13:45:32;;;;;;;5.57;4.00;;;;;;;;;;5016770;28;20100;-54
2023/01/18 13:48:02;;;;;;;7.25;4.03;;;;;;;;;;5016038;28;20132;-52
2023/01/18 13:50:44;;;;;;;7.27;4.37;;;;;;;;;;5015047;28;20136;-49
2023/01/18 13:53:30;;;;;;;9.40;4.15;;;;;;;;;;5014447;28;20280;-53
2023/01/18 13:56:28;;;;;;;6.60;3.78;;;;;;;;;;5015211;28;20058;-48
2023/01/18 13:59:00;;;;;;;6.28;3.78;;;;;;;;;;5015299;28;20065;-49
2023/01/18 14:01:32;;;;;;;5.97;3.92;;;;;;;;;;5015291;28;20042;-49
2023/01/18 14:04:07;;;;;;;6.60;4.18;;;;;;;;;;5014796;28;20133;-51
2023/01/18 14:06:37;;;;;;;5.63;3.80;;;;;;;;;;4996059;28;20058;-50
2023/01/18 14:09:06;;;;;;;7.50;4.40;;;;;;;;;;4994707;28;20058;-50
2023/01/18 14:11:37;;;;;;;6.45;4.07;;;;;;;;;;4994634;28;20054;-49
2023/01/18 14:14:22;;;;;;;8.27;4.88;;;;;;;;;;4994875;28;20060;-52
2023/01/18 14:16:58;;;;;;;6.57;4.50;;;;;;;;;;4995014;28;20054;-48
2023/01/18 14:19:27;;;;;;;8.38;4.28;;;;;;;;;;4995078;28;20069;-50
2023/01/18 14:22:25;;;;;;;6.97;3.97;;;;;;;;;;4994833;28;20558;-52
2023/01/18 14:25:06;;;;;;;6.97;3.92;;;;;;;;;;4994929;28;20058;-51
2023/01/18 14:27:39;;;;;;;10.20;4.40;;;;;;;;;;4994898;28;20046;-50
2023/01/18 14:30:13;;;;;;;7.85;4.55;;;;;;;;;;4994955;28;20482;-49
2023/01/18 14:32:45;;;;;;;5.75;3.70;;;;;;;;;;4994381;28;20042;-51
2023/01/18 14:35:19;;;;;;;6.45;3.83;;;;;;;;;;4994896;28;20054;-50
2023/01/18 14:37:46;;;;;;;6.03;4.18;;;;;;;;;;4994421;28;20046;-51
2023/01/18 14:40:22;;;;;;;6.10;4.40;;;;;;;;;;4994562;28;20082;-51
2023/01/18 14:42:53;;;;;;;6.45;4.22;;;;;;;;;;4994035;28;20050;-49
2023/01/18 14:45:26;;;;;;;6.38;4.72;;;;;;;;;;4994822;28;20570;-53
2023/01/18 14:47:53;;;;;;;7.15;4.57;;;;;;;;;;4994608;28;20096;-49
2023/01/18 14:50:22;;;;;;;7.38;4.55;;;;;;;;;;4994404;28;20054;-49
2023/01/18 14:52:51;;;;;;;6.53;4.10;;;;;;;;;;4994068;28;20054;-53
2023/01/18 14:55:27;;;;;;;7.28;4.70;;;;;;;;;;4994603;28;20061;-48
2023/01/18 14:58:02;;;;;;;6.93;4.18;;;;;;;;;;4994201;28;20112;-53
2023/01/18 15:00:30;;;;;;;7.97;4.10;;;;;;;;;;4994580;28;20054;-49
2023/01/18 15:02:59;;;;;;;6.25;4.50;;;;;;;;;;4993885;28;20503;-53
2023/01/18 15:05:29;;;;;;;9.35;5.25;;;;;;;;;;5003488;28;20080;-49
2023/01/18 15:07:58;;;;;;;9.40;4.68;;;;;;;;;;5013695;28;20546;-54
2023/01/18 15:10:26;;;;;;;8.80;4.60;;;;;;;;;;5013430;28;20533;-49
2023/01/18 15:12:55;;;;;;;6.22;4.68;;;;;;;;;;5013435;28;20049;-48
2023/01/18 15:15:26;;;;;;;7.38;4.50;;;;;;;;;;5013673;28;20054;-50
2023/01/18 15:18:04;;;;;;;7.70;5.05;;;;;;;;;;5013521;28;20461;-48
2023/01/18 15:20:32;;;;;;;8.82;5.38;;;;;;;;;;5012636;28;20514;-49
2023/01/18 15:22:59;;;;;;;6.85;4.75;;;;;;;;;;5013223;28;20053;-49
2023/01/18 15:25:30;;;;;;;9.13;4.80;;;;;;;;;;5013343;28;20042;-52
2023/01/18 15:27:58;;;;;;;;;;;;;;;;;;5013656;28;20112;-52
2023/01/18 15:30:26;;;;;;;9.73;5.30;;;;;;;;;;5013434;28;19925;-53
2023/01/18 15:33:00;;;;;;;8.35;5.47;;;;;;;;;;5013053;28;20139;-53
2023/01/18 15:35:28;;;;;;;7.60;4.82;;;;;;;;;;5013271;28;20057;-51
2023/01/18 15:37:55;;;;;;;9.35;5.05;;;;;;;;;;5013136;28;20046;-51
2023/01/18 15:40:27;;;;;;;7.75;5.18;;;;;;;;;;5013026;28;20056;-49